createdAt,value
2018-04-12T05:39:52.039Z,61.90
2018-04-12T05:42:23.194Z,77.20
2018-04-12T05:44:55.743Z,81.55
2018-04-12T05:47:26.258Z,78.55
2018-04-12T05:49:56.299Z,74.97
2018-04-12T05:52:27.909Z,66.00
2018-04-12T05:54:58.393Z,71.75
2018-04-12T05:57:29.642Z,78.90
2018-04-12T06:00:00.242Z,105.70
2018-04-12T06:02:30.312Z,76.87
2018-04-12T06:04:59.821Z,81.18
2018-04-12T06:07:29.586Z,73.75
2018-04-12T06:09:59.691Z,67.10
2018-04-12T06:12:29.785Z,74.55
2018-04-12T06:15:00.029Z,68.62
2018-04-12T06:17:31.030Z,80.20
2018-04-12T06:20:02.007Z,79.75
2018-04-12T06:22:32.896Z,63.53
2018-04-12T06:25:03.402Z,66.28
2018-04-12T06:27:35.114Z,68.00
2018-04-12T06:30:05.807Z,63.13
2018-04-12T06:32:35.545Z,60.95
2018-04-12T06:35:05.190Z,61.53
2018-04-12T06:37:35.523Z,63.15
2018-04-12T06:40:08.969Z,68.45
2018-04-12T06:42:38.645Z,63.92
2018-04-12T06:45:09.655Z,68.47
2018-04-12T06:47:40.327Z,80.05
2018-04-12T06:50:10.767Z,74.22
2018-04-12T06:52:41.764Z,70.03
2018-04-12T06:55:12.251Z,64.60
2018-04-12T06:57:42.471Z,66.68
2018-04-12T07:00:12.938Z,60.90
2018-04-12T07:02:43.281Z,67.97
2018-04-12T07:05:14.469Z,62.92
2018-04-12T07:07:44.587Z,68.90
2018-04-12T07:10:15.898Z,67.28
2018-04-12T07:12:47.290Z,62.92
2018-04-12T07:15:17.635Z,67.57
2018-04-12T07:17:48.123Z,72.80
2018-04-12T07:20:17.633Z,77.32
2018-04-12T07:22:46.021Z,75.32
2018-04-12T07:25:16.326Z,68.18
2018-04-12T07:27:46.593Z,64.55
2018-04-12T07:30:16.440Z,65.45
2018-04-12T07:32:49.409Z,74.65
2018-04-12T07:35:20.172Z,73.40
2018-04-12T07:37:51.259Z,65.55
2018-04-12T07:40:21.391Z,70.28
2018-04-12T07:42:51.119Z,68.28
2018-04-12T07:45:24.242Z,78.50
2018-04-12T07:47:56.893Z,61.53
2018-04-12T07:50:29.053Z,69.72
2018-04-12T07:52:59.881Z,66.53
2018-04-12T07:55:30.176Z,73.90
2018-04-12T07:58:00.230Z,71.47
2018-04-12T08:00:30.851Z,72.85
2018-04-12T08:03:00.088Z,73.43
2018-04-12T08:05:29.949Z,69.03
2018-04-12T08:07:59.700Z,67.80
2018-04-12T08:10:30.507Z,61.50
2018-04-12T08:13:00.749Z,72.95
2018-04-12T08:15:31.257Z,66.53
2018-04-12T08:18:05.099Z,75.15
2018-04-12T08:20:35.023Z,64.25
2018-04-12T08:23:05.751Z,66.12
2018-04-12T08:25:39.506Z,68.53
2018-04-12T08:28:09.790Z,61.33
2018-04-12T08:30:39.548Z,71.78
2018-04-12T08:33:09.346Z,67.78
2018-04-12T08:35:39.862Z,65.47
2018-04-12T08:38:10.007Z,76.18
2018-04-12T08:40:39.554Z,69.80
2018-04-12T08:43:09.628Z,82.32
2018-04-12T08:45:39.664Z,73.43
2018-04-12T08:48:12.254Z,82.22
2018-04-12T08:50:42.858Z,64.30
2018-04-12T08:53:12.461Z,72.43
2018-04-12T08:55:42.300Z,67.35
2018-04-12T08:58:13.478Z,70.72
2018-04-12T09:00:44.122Z,66.18
2018-04-12T09:03:14.367Z,73.97
2018-04-12T09:05:45.858Z,79.78
2018-04-12T09:08:18.920Z,76.97
2018-04-12T09:10:49.854Z,76.25
2018-04-12T09:13:19.614Z,73.70
2018-04-12T09:15:51.240Z,72.82
2018-04-12T09:18:22.864Z,67.90
2018-04-12T09:20:52.639Z,63.28
2018-04-12T09:23:22.793Z,67.03
2018-04-12T09:25:53.081Z,71.30
2018-04-12T09:28:24.665Z,68.78
2018-04-12T09:30:57.432Z,60.47
2018-04-12T09:33:30.166Z,62.65
2018-04-12T09:36:00.600Z,68.78
2018-04-12T09:38:30.607Z,62.58
2018-04-12T09:41:02.222Z,62.90
2018-04-12T09:43:34.029Z,68.65
2018-04-12T09:46:06.706Z,68.80
2018-04-12T09:48:37.464Z,70.07
2018-04-12T09:51:10.339Z,71.03
2018-04-12T09:53:41.281Z,70.07
2018-04-12T09:56:12.314Z,68.97
2018-04-12T09:58:43.030Z,66.43
2018-04-12T10:01:16.321Z,63.93
2018-04-12T10:03:51.021Z,68.07
2018-04-12T10:06:26.156Z,65.87
2018-04-12T10:09:04.975Z,61.03
2018-04-12T10:11:37.840Z,60.50
2018-04-12T10:14:12.497Z,61.70
2018-04-12T10:16:46.675Z,61.83
2018-04-12T10:19:20.459Z,61.13
2018-04-12T10:21:59.206Z,60.77
2018-04-12T10:24:32.738Z,61.17
2018-04-12T10:27:05.767Z,58.77
2018-04-12T10:29:40.506Z,61.40
2018-04-12T10:32:16.257Z,57.70
2018-04-12T10:34:53.136Z,66.90
2018-04-12T10:37:29.032Z,57.87
2018-04-12T10:40:04.805Z,53.93
2018-04-12T10:42:38.338Z,62.00
2018-04-12T10:45:11.657Z,59.80
2018-04-12T10:47:46.119Z,61.63
2018-04-12T10:50:20.981Z,59.47
2018-04-12T10:52:56.550Z,55.13
2018-04-12T10:55:30.974Z,65.67
2018-04-12T10:58:05.913Z,63.67
2018-04-12T11:00:38.900Z,58.67
2018-04-12T11:03:11.912Z,62.30
2018-04-12T11:05:45.389Z,57.13
2018-04-12T11:08:19.194Z,49.37
2018-04-12T11:10:54.494Z,53.20
2018-04-12T11:13:29.752Z,63.27
2018-04-12T11:16:03.341Z,62.60
2018-04-12T11:18:36.800Z,53.63
2018-04-12T11:21:10.005Z,52.27
2018-04-12T11:23:43.130Z,55.37
2018-04-12T11:26:15.998Z,52.40
2018-04-12T11:28:52.389Z,52.87
2018-04-12T11:31:25.091Z,52.90
2018-04-12T11:33:59.145Z,47.83
2018-04-12T11:36:32.853Z,57.90
2018-04-12T11:39:09.216Z,52.33
2018-04-12T11:41:45.849Z,51.47
2018-04-12T11:44:20.048Z,59.57
2018-04-12T11:46:53.428Z,53.23
2018-04-12T11:49:27.158Z,54.13
2018-04-12T11:52:00.337Z,51.03
2018-04-12T11:54:33.872Z,56.20
2018-04-12T11:57:07.054Z,48.53
2018-04-12T11:59:40.545Z,51.83
2018-04-12T12:02:15.686Z,54.90
2018-04-12T12:04:48.130Z,56.83
2018-04-12T12:07:20.630Z,51.17
2018-04-12T12:09:53.735Z,54.07
2018-04-12T12:12:26.799Z,51.97
2018-04-12T12:15:00.272Z,50.43
2018-04-12T12:17:33.367Z,52.35
2018-04-12T12:20:08.950Z,49.00
2018-04-12T12:22:41.122Z,53.37
2018-04-12T12:25:13.746Z,48.57
2018-04-12T12:27:45.655Z,55.57
2018-04-12T12:30:19.572Z,44.53
2018-04-12T12:32:53.614Z,52.07
2018-04-12T12:35:27.158Z,51.67
2018-04-12T12:38:00.293Z,48.53
2018-04-12T12:40:32.728Z,48.30
2018-04-12T12:43:04.940Z,49.83
2018-04-12T12:45:39.724Z,48.37
2018-04-12T12:48:12.242Z,49.63
2018-04-12T12:50:45.276Z,48.33
2018-04-12T12:53:17.484Z,46.90
2018-04-12T12:55:49.431Z,40.97
2018-04-12T12:58:20.979Z,40.07
2018-04-12T13:00:53.542Z,51.07
2018-04-12T13:03:27.209Z,45.30
2018-04-12T13:06:00.961Z,41.07
2018-04-12T13:08:33.534Z,47.87
2018-04-12T13:11:06.547Z,52.37
2018-04-12T13:13:39.122Z,39.80
2018-04-12T13:16:12.603Z,40.90
2018-04-12T13:18:45.100Z,41.57
2018-04-12T13:21:18.895Z,49.27
2018-04-12T13:23:53.588Z,43.93
2018-04-12T13:26:28.399Z,49.50
2018-04-12T13:29:02.076Z,40.13
2018-04-12T13:31:36.119Z,41.37
2018-04-12T13:34:12.170Z,40.77
2018-04-12T13:36:45.531Z,42.67
2018-04-12T13:39:22.369Z,41.97
2018-04-12T13:41:56.354Z,48.03
2018-04-12T13:44:30.463Z,46.00
2018-04-12T13:47:05.145Z,42.13
2018-04-12T13:49:39.331Z,40.90
2018-04-12T13:52:15.734Z,38.80
2018-04-12T13:54:49.201Z,43.30
2018-04-12T13:57:24.503Z,44.77
2018-04-12T13:59:58.051Z,45.53
2018-04-12T14:02:31.541Z,45.90
2018-04-12T14:05:07.976Z,45.97
2018-04-12T14:07:42.169Z,43.80
2018-04-12T14:10:15.506Z,47.77
2018-04-12T14:12:49.185Z,42.37
2018-04-12T14:15:22.808Z,48.70
2018-04-12T14:17:55.925Z,43.00
2018-04-12T14:20:31.778Z,38.50
2018-04-12T14:23:05.260Z,49.60
2018-04-12T14:25:41.605Z,46.73
2018-04-12T14:28:18.189Z,47.93
2018-04-12T14:30:51.670Z,46.40
2018-04-12T14:33:25.287Z,48.87
2018-04-12T14:35:58.592Z,48.70
2018-04-12T14:38:34.166Z,53.63
2018-04-12T14:41:07.995Z,42.83
2018-04-12T14:43:42.066Z,44.33
2018-04-12T14:46:16.788Z,44.33
2018-04-12T14:48:51.714Z,46.87
2018-04-12T14:51:25.105Z,41.10
2018-04-12T14:53:57.771Z,44.10
2018-04-12T14:56:34.075Z,41.93
2018-04-12T14:59:09.886Z,37.80
2018-04-12T15:01:43.455Z,38.57
2018-04-12T15:04:17.131Z,43.40
2018-04-12T15:06:49.700Z,38.70
2018-04-12T15:09:26.721Z,34.60
2018-04-12T15:12:00.263Z,35.73
2018-04-12T15:14:33.875Z,36.33
2018-04-12T15:17:08.571Z,36.07
2018-04-12T15:19:43.909Z,34.37
2018-04-12T15:22:18.868Z,31.80
2018-04-12T15:24:53.558Z,33.30
2018-04-12T15:27:29.339Z,37.67
2018-04-12T15:30:05.459Z,34.73
2018-04-12T15:32:38.660Z,36.50
2018-04-12T15:35:12.898Z,31.47
2018-04-12T15:37:48.129Z,30.67
2018-04-12T15:40:20.444Z,31.50
2018-04-12T15:42:54.226Z,32.00
2018-04-12T15:45:26.999Z,30.47
2018-04-12T15:48:01.979Z,31.80
2018-04-12T15:50:36.298Z,31.80
2018-04-12T15:53:09.299Z,33.03
2018-04-12T15:55:44.629Z,28.07
2018-04-12T15:58:19.834Z,30.37
2018-04-12T16:00:53.092Z,28.10
2018-04-12T16:03:28.652Z,30.90
2018-04-12T16:06:02.969Z,28.63
2018-04-12T16:08:39.237Z,30.13
2018-04-12T16:11:12.642Z,26.10
2018-04-12T16:13:46.086Z,24.77
2018-04-12T16:16:20.057Z,25.53
2018-04-12T16:18:53.922Z,26.07
2018-04-12T16:21:29.045Z,25.13
2018-04-12T16:24:03.105Z,32.17
2018-04-12T16:26:39.076Z,23.37
2018-04-12T16:29:12.971Z,20.10
2018-04-12T16:31:47.647Z,23.70
2018-04-12T16:34:21.449Z,22.40
2018-04-12T16:36:55.951Z,24.50
2018-04-12T16:39:29.951Z,24.03
2018-04-12T16:42:05.263Z,24.90
2018-04-12T16:44:39.032Z,23.67
2018-04-12T16:47:13.173Z,25.73
2018-04-12T16:49:46.661Z,24.47
2018-04-12T16:52:21.099Z,24.87
2018-04-12T16:54:54.367Z,25.37
2018-04-12T16:57:29.535Z,22.33
2018-04-12T17:00:03.400Z,22.10
2018-04-12T17:02:38.013Z,29.57
2018-04-12T17:05:10.381Z,24.17
2018-04-12T17:07:42.687Z,25.60
2018-04-12T17:10:16.160Z,28.17
2018-04-12T17:12:49.506Z,22.90
2018-04-12T17:15:22.333Z,27.77
2018-04-12T17:17:55.400Z,26.60
2018-04-12T17:20:28.072Z,29.23
2018-04-12T17:23:01.778Z,27.60
2018-04-12T17:25:34.040Z,25.80
2018-04-12T17:28:06.717Z,30.80
2018-04-12T17:30:39.240Z,20.47
2018-04-12T17:33:11.791Z,26.47
2018-04-12T17:35:44.292Z,25.80
2018-04-12T17:38:17.647Z,24.50
2018-04-12T17:40:51.219Z,28.87
2018-04-12T17:43:24.705Z,30.00
2018-04-12T17:45:57.418Z,25.30
2018-04-12T17:48:30.095Z,21.73
2018-04-12T17:51:03.305Z,24.10
2018-04-12T17:53:35.928Z,35.30
2018-04-12T17:56:07.121Z,28.07
2018-04-12T17:58:39.340Z,27.60
2018-04-12T18:01:11.878Z,25.73
2018-04-12T18:03:44.190Z,26.20
2018-04-12T18:06:17.032Z,21.67
2018-04-12T18:08:52.260Z,23.30
2018-04-12T18:11:24.623Z,23.67
2018-04-12T18:13:57.096Z,29.47
2018-04-12T18:16:28.844Z,29.93
2018-04-12T18:19:01.116Z,24.47
2018-04-12T18:21:34.474Z,26.60
2018-04-12T18:24:05.521Z,24.80
2018-04-12T18:26:36.167Z,26.43
2018-04-12T18:29:08.034Z,24.43
2018-04-12T18:31:40.990Z,27.00
2018-04-12T18:34:13.278Z,26.97
2018-04-12T18:36:46.503Z,24.50
2018-04-12T18:39:19.130Z,30.37
2018-04-12T18:41:50.069Z,26.03
2018-04-12T18:44:21.959Z,39.20
2018-04-12T18:46:56.159Z,27.40
2018-04-12T18:49:27.974Z,25.57
2018-04-12T18:52:01.137Z,28.50
2018-04-12T18:54:34.132Z,28.13
2018-04-12T18:57:05.530Z,30.07
2018-04-12T18:59:36.892Z,25.90
2018-04-12T19:02:09.841Z,26.10
2018-04-12T19:04:44.693Z,27.97
2018-04-12T19:07:17.695Z,29.80
2018-04-12T19:09:49.717Z,25.17
2018-04-12T19:12:20.576Z,30.30
2018-04-12T19:14:50.879Z,30.23
2018-04-12T19:17:25.821Z,29.40
2018-04-12T19:19:57.685Z,28.63
2018-04-12T19:22:27.823Z,30.97
2018-04-12T19:24:58.887Z,27.57
2018-04-12T19:27:30.364Z,26.67
2018-04-12T19:30:01.334Z,32.47
2018-04-12T19:32:34.733Z,26.90
2018-04-12T19:35:09.965Z,26.47
2018-04-12T19:37:40.970Z,22.03
2018-04-12T19:40:13.141Z,23.77
2018-04-12T19:42:44.524Z,24.87
2018-04-12T19:45:19.173Z,25.50
2018-04-12T19:47:52.594Z,25.70
2018-04-12T19:50:24.592Z,27.35
2018-04-12T19:52:56.577Z,25.83
2018-04-12T19:55:28.783Z,20.53
2018-04-12T19:58:00.057Z,21.20
2018-04-12T20:00:30.979Z,21.83
2018-04-12T20:03:01.799Z,25.40
2018-04-12T20:05:35.726Z,20.23
2018-04-12T20:08:10.004Z,21.02
2018-04-12T20:10:40.827Z,24.23
2018-04-12T20:13:13.125Z,21.47
2018-04-12T20:15:44.946Z,22.48
2018-04-12T20:18:15.916Z,24.52
2018-04-12T20:20:47.051Z,22.30
2018-04-12T20:23:17.962Z,24.73
2018-04-12T20:25:48.451Z,21.58
2018-04-12T20:28:20.777Z,21.25
2018-04-12T20:30:51.353Z,21.92
2018-04-12T20:33:24.188Z,21.77
2018-04-12T20:35:56.561Z,21.70
2018-04-12T20:38:26.516Z,20.65
2018-04-12T20:40:56.245Z,21.33
2018-04-12T20:43:27.273Z,23.25
2018-04-12T20:45:57.794Z,21.05
2018-04-12T20:48:29.940Z,22.42
2018-04-12T20:51:00.253Z,22.17
2018-04-12T20:53:30.112Z,20.25
2018-04-12T20:55:59.837Z,20.37
2018-04-12T20:58:33.344Z,20.73
2018-04-12T21:01:03.858Z,18.58
2018-04-12T21:03:35.935Z,19.20
2018-04-12T21:06:08.883Z,18.80
2018-04-12T21:08:41.300Z,16.12
2018-04-12T21:11:11.130Z,21.15
2018-04-12T21:13:41.396Z,22.85
2018-04-12T21:16:12.613Z,20.25
2018-04-12T21:18:42.396Z,20.23
2018-04-12T21:21:14.675Z,19.75
2018-04-12T21:23:44.659Z,26.42
2018-04-12T21:26:16.824Z,23.55
2018-04-12T21:28:50.435Z,23.87
2018-04-12T21:31:22.318Z,28.15
2018-04-12T21:33:54.397Z,26.80
2018-04-12T21:36:27.063Z,27.83
2018-04-12T21:38:57.299Z,32.30
2018-04-12T21:41:29.713Z,35.35
2018-04-12T21:44:02.190Z,30.40
2018-04-12T21:46:34.174Z,34.80
2018-04-12T21:49:07.465Z,41.33
2018-04-12T21:51:38.715Z,42.00
2018-04-12T21:54:09.621Z,43.50
2018-04-12T21:56:39.787Z,45.00
2018-04-12T21:59:12.037Z,52.72
2018-04-12T22:01:45.402Z,60.97
2018-04-12T22:04:15.213Z,55.67
2018-04-12T22:06:47.524Z,63.08
2018-04-12T22:09:18.867Z,67.43
2018-04-12T22:11:49.477Z,83.05
2018-04-12T22:14:22.172Z,73.37
2018-04-12T22:16:55.309Z,83.43
2018-04-12T22:19:27.836Z,79.32
2018-04-12T22:21:58.360Z,77.18
2018-04-12T22:24:30.791Z,81.82
2018-04-12T22:27:00.990Z,86.65
2018-04-12T22:29:33.013Z,85.55
2018-04-12T22:32:04.273Z,85.55
2018-04-12T22:34:34.804Z,92.65
2018-04-12T22:37:05.624Z,89.90
2018-04-12T22:39:39.363Z,101.55
2018-04-12T22:42:09.831Z,87.57
2018-04-12T22:44:39.911Z,97.50
2018-04-12T22:47:12.127Z,88.07
2018-04-12T22:49:44.305Z,87.57
2018-04-12T22:52:14.235Z,96.75
2018-04-12T22:54:46.983Z,95.70
2018-04-12T22:57:16.813Z,87.82
2018-04-12T22:59:46.740Z,90.12
2018-04-12T23:02:19.698Z,100.70
2018-04-12T23:04:51.824Z,108.32
2018-04-12T23:07:22.104Z,110.82
2018-04-12T23:09:51.791Z,107.40
2018-04-12T23:12:22.175Z,97.53
2018-04-12T23:14:52.647Z,109.85
2018-04-12T23:17:24.909Z,94.47
2018-04-12T23:19:54.618Z,109.75
2018-04-12T23:22:27.234Z,110.18
2018-04-12T23:24:57.460Z,105.90
2018-04-12T23:27:30.732Z,113.75
2018-04-12T23:30:02.680Z,110.82
2018-04-12T23:32:33.122Z,108.22
2018-04-12T23:35:03.988Z,109.78
2018-04-12T23:37:35.615Z,117.40
2018-04-12T23:40:07.657Z,116.35
2018-04-12T23:42:37.421Z,102.85
2018-04-12T23:45:10.120Z,131.15
2018-04-12T23:47:42.415Z,112.50
2018-04-12T23:50:13.466Z,119.95
2018-04-12T23:52:45.649Z,123.72
2018-04-12T23:55:16.259Z,119.28
2018-04-12T23:57:48.633Z,107.75
